Time;durP1;ratioP1;P1;durP2;ratioP2;P2;SDS_P1;SDS_P2;PMS_P1;PMS_P2;Temp;Humidity;BMP_temperature;BMP_pressure;BME280_temperature;BME280_humidity;BME280_pressure;Samples;Min_cycle;Max_cycle;Signal;HPM_P1;HPM_P2
2022/04/30 00:00:58;;;;;;;12.82;6.50;;;;;;;;;;5014687;28;20045;-66
2022/04/30 00:03:26;;;;;;;15.60;6.40;;;;;;;;;;5012818;28;20073;-66
2022/04/30 00:05:53;;;;;;;9.38;5.95;;;;;;;;;;5002932;28;20045;-66
2022/04/30 00:08:19;;;;;;;8.27;5.35;;;;;;;;;;5009774;28;20048;-66
2022/04/30 00:10:45;;;;;;;8.88;5.43;;;;;;;;;;5014433;28;20386;-66
2022/04/30 00:13:11;;;;;;;9.90;5.10;;;;;;;;;;5001384;28;20654;-66
2022/04/30 00:15:38;;;;;;;10.68;5.95;;;;;;;;;;5006799;28;20033;-66
2022/04/30 00:18:04;;;;;;;8.73;4.82;;;;;;;;;;5014587;28;20062;-66
2022/04/30 00:20:32;;;;;;;13.38;7.60;;;;;;;;;;5009812;28;20038;-66
2022/04/30 00:22:58;;;;;;;10.05;5.25;;;;;;;;;;5013223;28;20038;-66
2022/04/30 00:25:25;;;;;;;8.20;5.18;;;;;;;;;;4996068;28;20045;-66
2022/04/30 00:27:51;;;;;;;11.90;5.20;;;;;;;;;;5005258;28;20046;-66
2022/04/30 00:30:18;;;;;;;10.75;5.60;;;;;;;;;;5016896;28;20115;-66
2022/04/30 00:32:44;;;;;;;10.90;5.68;;;;;;;;;;5011925;28;20131;-66
2022/04/30 00:35:10;;;;;;;12.48;6.72;;;;;;;;;;4999819;28;20042;-66
2022/04/30 00:37:36;;;;;;;15.77;6.55;;;;;;;;;;5011496;28;20069;-66
2022/04/30 00:40:03;;;;;;;9.52;5.85;;;;;;;;;;5014055;28;20052;-66
2022/04/30 00:42:29;;;;;;;10.60;7.00;;;;;;;;;;5017894;28;20104;-66
2022/04/30 00:44:55;;;;;;;12.00;6.25;;;;;;;;;;5021837;28;20052;-66
2022/04/30 00:47:21;;;;;;;9.55;6.35;;;;;;;;;;5018707;28;20045;-66
2022/04/30 00:49:47;;;;;;;12.75;7.07;;;;;;;;;;5012267;28;20076;-66
2022/04/30 00:52:15;;;;;;;9.85;7.45;;;;;;;;;;5003535;28;20508;-66
2022/04/30 00:54:42;;;;;;;10.77;7.47;;;;;;;;;;5018758;28;20549;-66
2022/04/30 00:57:11;;;;;;;13.00;7.30;;;;;;;;;;5015502;28;20105;-66
2022/04/30 00:59:39;;;;;;;14.13;7.10;;;;;;;;;;5011148;28;20049;-66
2022/04/30 01:02:05;;;;;;;11.10;7.45;;;;;;;;;;5012382;28;20104;-66
2022/04/30 01:04:32;;;;;;;16.50;8.07;;;;;;;;;;5012534;28;20046;-66
2022/04/30 01:07:05;;;;;;;15.45;7.53;;;;;;;;;;5012884;28;20057;-66
2022/04/30 01:09:32;;;;;;;10.85;6.95;;;;;;;;;;5012536;28;20153;-66
2022/04/30 01:12:03;;;;;;;11.45;7.53;;;;;;;;;;4998085;28;20148;-66
2022/04/30 01:14:31;;;;;;;12.30;6.82;;;;;;;;;;5004981;28;20486;-66
2022/04/30 01:16:57;;;;;;;11.18;6.85;;;;;;;;;;5002420;28;20084;-66
2022/04/30 01:19:27;;;;;;;12.02;7.05;;;;;;;;;;5017279;28;20047;-66
2022/04/30 01:21:56;;;;;;;12.63;6.93;;;;;;;;;;5015502;28;20642;-66
2022/04/30 01:24:22;;;;;;;18.20;8.07;;;;;;;;;;5018124;28;20096;-66
2022/04/30 01:26:51;;;;;;;12.38;6.95;;;;;;;;;;5016053;28;20030;-66
2022/04/30 01:29:18;;;;;;;9.90;5.85;;;;;;;;;;5011787;28;21440;-66
2022/04/30 01:37:22;;;;;;;10.02;5.72;;;;;;;;;;5005905;28;20136;-66
2022/04/30 01:39:52;;;;;;;8.60;5.88;;;;;;;;;;5004190;28;20041;-67
2022/04/30 01:42:18;;;;;;;13.10;6.53;;;;;;;;;;4998486;28;20041;-65
2022/04/30 01:44:47;;;;;;;10.05;6.60;;;;;;;;;;5015635;28;20044;-66
2022/04/30 01:47:15;;;;;;;15.15;7.18;;;;;;;;;;5008042;28;20156;-66
2022/04/30 01:49:42;;;;;;;11.27;6.72;;;;;;;;;;5014368;28;20038;-66
2022/04/30 01:52:08;;;;;;;10.13;6.72;;;;;;;;;;5015168;28;20045;-66
2022/04/30 01:54:35;;;;;;;17.73;7.10;;;;;;;;;;5016007;28;20042;-66
2022/04/30 01:57:01;;;;;;;10.93;7.63;;;;;;;;;;5013249;28;20861;-66
2022/04/30 01:59:28;;;;;;;9.13;7.03;;;;;;;;;;5014296;28;20069;-66
2022/04/30 02:01:55;;;;;;;12.85;7.32;;;;;;;;;;5018462;28;20405;-66
2022/04/30 02:04:22;;;;;;;8.30;6.38;;;;;;;;;;5011676;28;20053;-66
2022/04/30 02:06:48;;;;;;;9.10;6.95;;;;;;;;;;5017098;28;20096;-66
2022/04/30 02:09:15;;;;;;;12.57;6.60;;;;;;;;;;5019166;28;20121;-66
2022/04/30 02:11:42;;;;;;;12.18;7.40;;;;;;;;;;5017041;28;20041;-66
2022/04/30 02:14:11;;;;;;;12.85;7.07;;;;;;;;;;5018819;28;20076;-66
2022/04/30 02:16:39;;;;;;;11.43;7.40;;;;;;;;;;4997664;28;20057;-66
2022/04/30 02:19:07;;;;;;;13.98;7.40;;;;;;;;;;5012297;28;20409;-67
2022/04/30 02:21:33;;;;;;;13.73;7.57;;;;;;;;;;5016639;28;20501;-66
2022/04/30 02:24:00;;;;;;;13.13;7.18;;;;;;;;;;5015179;28;20096;-66
2022/04/30 02:26:27;;;;;;;14.07;7.95;;;;;;;;;;5014573;28;20510;-67
2022/04/30 02:28:57;;;;;;;14.35;7.53;;;;;;;;;;5015165;28;20132;-66
2022/04/30 02:31:25;;;;;;;11.35;7.43;;;;;;;;;;5015556;28;20081;-66
2022/04/30 02:33:54;;;;;;;14.02;7.57;;;;;;;;;;5025232;28;20132;-66
2022/04/30 02:36:25;;;;;;;10.00;7.82;;;;;;;;;;5009379;28;20401;-66
2022/04/30 02:38:52;;;;;;;10.93;6.97;;;;;;;;;;5013819;28;20067;-66
2022/04/30 02:41:21;;;;;;;16.80;7.32;;;;;;;;;;5019092;28;20050;-66
2022/04/30 02:43:47;;;;;;;12.02;7.30;;;;;;;;;;5005450;28;20115;-66
2022/04/30 02:46:14;;;;;;;13.48;7.10;;;;;;;;;;5006208;28;20049;-66
2022/04/30 02:48:40;;;;;;;12.57;7.28;;;;;;;;;;5014333;28;20038;-66
2022/04/30 02:51:07;;;;;;;13.13;7.85;;;;;;;;;;5015029;28;20046;-66
2022/04/30 02:53:33;;;;;;;15.30;7.93;;;;;;;;;;5012912;28;20045;-66
2022/04/30 02:56:00;;;;;;;14.50;7.80;;;;;;;;;;5024313;28;20042;-66
2022/04/30 03:01:10;;;;;;;9.95;6.82;;;;;;;;;;5015095;28;20042;-66
2022/04/30 03:03:37;;;;;;;15.05;8.00;;;;;;;;;;5011082;28;20046;-66
2022/04/30 03:06:03;;;;;;;11.55;7.88;;;;;;;;;;5017853;28;20037;-66
2022/04/30 03:08:29;;;;;;;12.55;7.10;;;;;;;;;;5001823;28;20053;-67
2022/04/30 03:10:56;;;;;;;11.20;7.13;;;;;;;;;;5015333;28;20136;-66
2022/04/30 03:13:24;;;;;;;14.63;8.65;;;;;;;;;;4999361;28;20162;-66
2022/04/30 03:15:51;;;;;;;16.08;7.50;;;;;;;;;;4997248;28;20049;-66
2022/04/30 03:23:31;;;;;;;9.98;6.95;;;;;;;;;;5003831;28;20145;-66
2022/04/30 03:25:57;;;;;;;14.18;7.20;;;;;;;;;;5013456;28;20041;-66
2022/04/30 03:28:23;;;;;;;15.40;7.28;;;;;;;;;;5006581;28;20081;-66
2022/04/30 03:30:50;;;;;;;11.60;7.28;;;;;;;;;;5020055;28;20045;-66
2022/04/30 03:33:16;;;;;;;13.70;7.05;;;;;;;;;;5013009;28;20048;-66
2022/04/30 03:35:43;;;;;;;13.98;6.85;;;;;;;;;;5011145;28;20042;-66
2022/04/30 03:38:09;;;;;;;13.43;7.07;;;;;;;;;;5015035;28;20497;-66
2022/04/30 03:40:38;;;;;;;10.55;6.80;;;;;;;;;;5014273;28;20424;-66
2022/04/30 03:43:06;;;;;;;11.95;6.88;;;;;;;;;;5014780;28;20042;-66
2022/04/30 03:45:32;;;;;;;11.02;6.88;;;;;;;;;;5003901;28;20493;-66
2022/04/30 03:47:58;;;;;;;12.90;7.50;;;;;;;;;;5008079;28;20055;-66
2022/04/30 03:50:25;;;;;;;15.38;7.40;;;;;;;;;;5014305;28;20037;-66
2022/04/30 03:52:51;;;;;;;12.80;8.00;;;;;;;;;;4999301;28;20084;-66
2022/04/30 03:55:17;;;;;;;13.20;7.28;;;;;;;;;;4999552;28;20486;-66
2022/04/30 03:57:44;;;;;;;9.90;6.75;;;;;;;;;;5017899;28;20164;-66
2022/04/30 04:00:10;;;;;;;16.45;7.22;;;;;;;;;;5006384;28;20057;-66
2022/04/30 04:02:39;;;;;;;16.80;7.03;;;;;;;;;;5015113;28;20144;-66
2022/04/30 04:05:07;;;;;;;17.85;7.93;;;;;;;;;;5011120;28;20171;-66
2022/04/30 04:07:33;;;;;;;14.90;7.20;;;;;;;;;;5012333;28;20037;-66
2022/04/30 04:10:00;;;;;;;13.07;7.40;;;;;;;;;;5001664;28;20148;-66
2022/04/30 04:12:26;;;;;;;13.80;7.50;;;;;;;;;;5014721;28;20056;-66
2022/04/30 04:17:38;;;;;;;11.52;7.60;;;;;;;;;;5007348;28;20409;-66
2022/04/30 04:20:08;;;;;;;13.80;8.15;;;;;;;;;;5005334;28;20041;-66
2022/04/30 04:22:34;;;;;;;11.63;7.18;;;;;;;;;;5005176;28;20053;-66
2022/04/30 04:27:46;;;;;;;12.75;8.27;;;;;;;;;;5004340;28;20050;-66
2022/04/30 04:30:12;;;;;;;14.77;7.57;;;;;;;;;;5016855;28;20104;-66
2022/04/30 04:32:38;;;;;;;12.02;7.10;;;;;;;;;;5004015;28;20463;-66
2022/04/30 04:35:04;;;;;;;13.40;7.38;;;;;;;;;;5016431;28;20478;-66
2022/04/30 04:37:31;;;;;;;11.68;7.22;;;;;;;;;;5013122;28;20049;-66
2022/04/30 04:39:57;;;;;;;14.40;7.80;;;;;;;;;;4999429;28;20049;-66
2022/04/30 04:42:24;;;;;;;15.50;9.13;;;;;;;;;;4999309;28;20054;-66
2022/04/30 04:44:50;;;;;;;14.27;8.35;;;;;;;;;;5002033;28;20037;-66
2022/04/30 04:47:16;;;;;;;15.90;8.88;;;;;;;;;;5005584;28;20442;-66
2022/04/30 04:49:43;;;;;;;21.25;9.30;;;;;;;;;;5014253;28;20077;-66
2022/04/30 04:52:10;;;;;;;14.63;9.55;;;;;;;;;;5018316;28;20068;-66
2022/04/30 04:54:36;;;;;;;14.55;9.25;;;;;;;;;;4988324;28;20049;-65
2022/04/30 04:57:02;;;;;;;15.50;9.32;;;;;;;;;;5004829;28;20127;-66
2022/04/30 04:59:28;;;;;;;20.58;9.80;;;;;;;;;;4996964;28;20406;-65
2022/04/30 05:01:55;;;;;;;13.65;9.02;;;;;;;;;;5013450;28;20180;-66
2022/04/30 05:04:21;;;;;;;16.70;8.95;;;;;;;;;;5003118;28;21608;-66
2022/04/30 05:06:48;;;;;;;13.60;9.05;;;;;;;;;;5013379;28;20044;-66
2022/04/30 05:09:15;;;;;;;17.58;9.43;;;;;;;;;;5005808;28;20045;-66
2022/04/30 05:11:41;;;;;;;15.27;8.82;;;;;;;;;;5022718;28;20129;-66
2022/04/30 05:14:08;;;;;;;13.20;9.05;;;;;;;;;;5000457;28;20076;-66
2022/04/30 05:16:34;;;;;;;15.05;9.98;;;;;;;;;;5019208;28;20060;-66
2022/04/30 05:19:00;;;;;;;15.98;9.80;;;;;;;;;;4999366;28;20129;-66
2022/04/30 05:21:26;;;;;;;16.23;10.88;;;;;;;;;;5014130;28;20050;-66
2022/04/30 05:23:52;;;;;;;13.38;9.48;;;;;;;;;;5018521;28;20045;-66
2022/04/30 05:26:18;;;;;;;17.33;10.25;;;;;;;;;;5016693;28;20099;-66
2022/04/30 05:28:45;;;;;;;19.02;10.82;;;;;;;;;;5018431;28;20042;-66
2022/04/30 05:31:11;;;;;;;17.13;12.23;;;;;;;;;;5006035;28;20489;-66
2022/04/30 05:33:37;;;;;;;15.07;10.88;;;;;;;;;;5013639;28;20057;-66
2022/04/30 05:36:04;;;;;;;17.67;10.95;;;;;;;;;;5021245;28;20050;-66
2022/04/30 05:38:30;;;;;;;20.67;12.80;;;;;;;;;;5005081;28;20045;-66
2022/04/30 05:40:56;;;;;;;19.15;11.88;;;;;;;;;;5007278;28;20045;-66
2022/04/30 05:43:22;;;;;;;21.55;12.38;;;;;;;;;;4999761;28;20045;-66
2022/04/30 05:45:48;;;;;;;22.40;12.23;;;;;;;;;;5007855;28;20045;-66
2022/04/30 05:48:14;;;;;;;20.48;13.88;;;;;;;;;;5004469;28;20038;-65
2022/04/30 05:50:41;;;;;;;20.13;12.80;;;;;;;;;;5016528;28;20141;-66
2022/04/30 05:53:07;;;;;;;17.75;13.00;;;;;;;;;;5011339;28;20485;-66
2022/04/30 05:55:33;;;;;;;20.98;12.10;;;;;;;;;;5003793;28;20065;-66
2022/04/30 05:57:59;;;;;;;20.38;12.05;;;;;;;;;;5002462;28;20057;-66
2022/04/30 06:00:26;;;;;;;21.48;12.32;;;;;;;;;;5014247;28;20080;-65
2022/04/30 06:02:52;;;;;;;20.60;10.98;;;;;;;;;;5013661;28;20037;-66
2022/04/30 06:05:18;;;;;;;15.88;11.23;;;;;;;;;;5006726;28;20068;-66
2022/04/30 06:07:44;;;;;;;16.10;9.90;;;;;;;;;;5024902;28;20037;-67
2022/04/30 06:10:11;;;;;;;16.85;10.45;;;;;;;;;;5003958;28;20044;-66
2022/04/30 06:12:37;;;;;;;17.70;10.60;;;;;;;;;;5017048;28;20045;-66
2022/04/30 06:15:03;;;;;;;16.92;9.50;;;;;;;;;;5017991;28;20033;-66
2022/04/30 06:17:30;;;;;;;21.02;10.27;;;;;;;;;;5012252;28;20045;-66
2022/04/30 06:19:56;;;;;;;17.00;10.35;;;;;;;;;;5011137;28;20053;-65
2022/04/30 06:22:22;;;;;;;22.58;11.73;;;;;;;;;;5013571;28;20449;-65
2022/04/30 06:24:48;;;;;;;15.02;10.95;;;;;;;;;;5016220;28;20045;-66
2022/04/30 06:27:14;;;;;;;19.42;10.45;;;;;;;;;;5006890;28;20045;-65
2022/04/30 06:29:41;;;;;;;19.30;11.00;;;;;;;;;;5014777;28;20395;-69
2022/04/30 06:32:07;;;;;;;11.68;9.50;;;;;;;;;;5018272;28;20088;-66
2022/04/30 06:34:33;;;;;;;19.65;10.95;;;;;;;;;;5015871;28;20104;-66
2022/04/30 06:37:00;;;;;;;18.88;11.23;;;;;;;;;;5014772;28;20055;-66
2022/04/30 06:39:26;;;;;;;20.15;12.43;;;;;;;;;;5012758;28;20037;-65
2022/04/30 06:41:52;;;;;;;16.40;11.13;;;;;;;;;;5002630;28;20497;-65
2022/04/30 06:44:18;;;;;;;21.13;12.95;;;;;;;;;;5020348;28;20046;-66
2022/04/30 06:46:44;;;;;;;16.80;11.55;;;;;;;;;;5011854;28;20121;-66
2022/04/30 06:49:10;;;;;;;18.55;11.05;;;;;;;;;;5014834;28;20454;-66
2022/04/30 06:51:37;;;;;;;17.70;10.82;;;;;;;;;;4995210;28;20051;-65
2022/04/30 06:59:36;;;;;;;16.88;9.90;;;;;;;;;;5016434;28;20037;-66
2022/04/30 07:02:06;;;;;;;18.33;9.40;;;;;;;;;;5014307;28;20489;-66
2022/04/30 07:04:32;;;;;;;18.00;10.50;;;;;;;;;;5004436;28;20053;-66
2022/04/30 07:06:59;;;;;;;22.60;11.45;;;;;;;;;;5005643;28;20042;-66
2022/04/30 07:09:28;;;;;;;17.20;10.73;;;;;;;;;;4997731;28;20069;-66
2022/04/30 07:11:54;;;;;;;22.50;11.98;;;;;;;;;;5019058;28;20057;-66
2022/04/30 07:14:21;;;;;;;18.98;11.38;;;;;;;;;;5013282;28;20049;-66
2022/04/30 07:16:48;;;;;;;19.73;11.75;;;;;;;;;;5018137;28;20046;-65
2022/04/30 07:19:14;;;;;;;17.77;12.07;;;;;;;;;;5017473;28;20043;-66
2022/04/30 07:21:40;;;;;;;20.70;12.25;;;;;;;;;;5023181;28;20113;-66
2022/04/30 07:24:06;;;;;;;20.52;12.43;;;;;;;;;;5019960;28;20097;-66
2022/04/30 07:26:33;;;;;;;19.90;11.48;;;;;;;;;;5022038;28;20041;-66
2022/04/30 07:28:59;;;;;;;20.05;11.25;;;;;;;;;;4984674;28;20059;-66
2022/04/30 07:31:25;;;;;;;20.80;12.00;;;;;;;;;;5021211;28;20504;-65
2022/04/30 07:33:51;;;;;;;17.77;11.27;;;;;;;;;;5016951;28;20064;-65
2022/04/30 07:36:18;;;;;;;21.25;12.27;;;;;;;;;;5015994;28;20040;-65
2022/04/30 07:38:44;;;;;;;17.60;12.35;;;;;;;;;;5003342;28;20045;-66
2022/04/30 07:41:11;;;;;;;17.60;12.68;;;;;;;;;;5001787;28;20662;-65
2022/04/30 07:43:37;;;;;;;19.95;13.63;;;;;;;;;;5004416;28;20049;-65
2022/04/30 07:46:03;;;;;;;20.48;12.98;;;;;;;;;;5001488;28;20041;-65
2022/04/30 07:48:29;;;;;;;21.33;13.38;;;;;;;;;;5000222;28;20089;-65
2022/04/30 07:50:57;;;;;;;20.00;12.82;;;;;;;;;;5003049;28;20045;-65
2022/04/30 07:53:25;;;;;;;23.38;13.70;;;;;;;;;;5019938;28;20062;-65
2022/04/30 07:55:52;;;;;;;19.23;13.60;;;;;;;;;;5017853;28;20046;-65
2022/04/30 07:58:20;;;;;;;20.05;13.90;;;;;;;;;;5017682;28;20049;-66
2022/04/30 08:00:46;;;;;;;19.98;13.57;;;;;;;;;;5012824;28;20069;-65
2022/04/30 08:03:12;;;;;;;25.40;14.18;;;;;;;;;;5019734;28;20398;-65
2022/04/30 08:05:39;;;;;;;26.60;15.35;;;;;;;;;;5018964;28;20042;-65
2022/04/30 08:08:05;;;;;;;21.70;14.23;;;;;;;;;;5021482;28;20107;-65
2022/04/30 08:10:31;;;;;;;21.88;14.23;;;;;;;;;;5021059;28;20504;-66
2022/04/30 08:12:59;;;;;;;20.15;13.05;;;;;;;;;;5018784;28;20046;-65
2022/04/30 08:15:26;;;;;;;20.50;13.80;;;;;;;;;;5015020;28;20357;-65
2022/04/30 08:17:53;;;;;;;19.13;13.38;;;;;;;;;;5017634;28;20042;-66
2022/04/30 08:20:19;;;;;;;23.15;13.40;;;;;;;;;;5016082;28;20048;-65
2022/04/30 08:22:46;;;;;;;21.67;12.88;;;;;;;;;;5020891;28;20455;-65
2022/04/30 08:25:12;;;;;;;19.05;12.80;;;;;;;;;;5022237;28;20120;-65
2022/04/30 08:27:38;;;;;;;20.88;13.23;;;;;;;;;;5017286;28;20056;-65
2022/04/30 08:30:05;;;;;;;15.38;12.68;;;;;;;;;;5016993;28;20840;-65
2022/04/30 08:32:32;;;;;;;23.83;13.50;;;;;;;;;;5015780;28;20088;-66
2022/04/30 08:35:00;;;;;;;21.33;13.13;;;;;;;;;;5019630;28;20041;-65
2022/04/30 08:37:26;;;;;;;21.10;12.85;;;;;;;;;;5004931;28;20049;-65
2022/04/30 08:39:53;;;;;;;19.15;13.48;;;;;;;;;;5018096;28;20033;-66
2022/04/30 08:42:22;;;;;;;24.63;13.73;;;;;;;;;;5005537;28;20115;-65
2022/04/30 08:44:49;;;;;;;19.17;13.65;;;;;;;;;;5015554;28;20038;-66
2022/04/30 08:47:15;;;;;;;20.10;13.27;;;;;;;;;;5008464;28;20045;-66
2022/04/30 08:49:42;;;;;;;22.58;13.45;;;;;;;;;;5020740;28;20042;-65
2022/04/30 08:52:10;;;;;;;21.67;13.43;;;;;;;;;;5010708;28;20086;-65
2022/04/30 08:54:36;;;;;;;17.83;13.38;;;;;;;;;;4992565;28;20050;-65
2022/04/30 08:57:02;;;;;;;22.45;13.27;;;;;;;;;;5011308;28;20069;-65
2022/04/30 08:59:30;;;;;;;21.08;13.80;;;;;;;;;;4998114;28;20486;-65
2022/04/30 09:01:58;;;;;;;20.85;13.98;;;;;;;;;;5014983;28;20045;-66
2022/04/30 09:04:25;;;;;;;18.67;12.63;;;;;;;;;;5003068;28;20037;-65
2022/04/30 09:06:52;;;;;;;20.42;13.57;;;;;;;;;;5015521;28;20048;-65
2022/04/30 09:09:24;;;;;;;18.05;12.27;;;;;;;;;;5011773;28;20398;-65
2022/04/30 09:11:50;;;;;;;22.50;12.73;;;;;;;;;;5011309;28;20056;-65
2022/04/30 09:14:23;;;;;;;16.75;11.73;;;;;;;;;;5014475;28;20045;-65
2022/04/30 09:17:00;;;;;;;12.05;8.35;;;;;;;;;;5017137;28;20092;-65
2022/04/30 09:19:26;;;;;;;12.38;8.80;;;;;;;;;;5015676;28;20170;-65
2022/04/30 09:21:52;;;;;;;17.50;8.55;;;;;;;;;;5004161;28;20468;-65
2022/04/30 09:24:18;;;;;;;13.32;8.90;;;;;;;;;;5013025;28;20038;-65
2022/04/30 09:26:44;;;;;;;21.90;9.30;;;;;;;;;;5016490;28;20053;-65
2022/04/30 09:29:21;;;;;;;17.17;9.40;;;;;;;;;;5015594;28;20087;-65
2022/04/30 09:31:50;;;;;;;14.52;9.13;;;;;;;;;;5003514;28;20050;-65
2022/04/30 09:39:47;;;;;;;15.32;8.68;;;;;;;;;;5014181;28;20038;-65
2022/04/30 09:42:13;;;;;;;12.15;7.25;;;;;;;;;;5018580;28;20065;-65
2022/04/30 09:44:40;;;;;;;14.70;7.75;;;;;;;;;;5014654;28;20073;-65
2022/04/30 09:47:08;;;;;;;15.35;7.75;;;;;;;;;;5017824;28;20159;-65
2022/04/30 09:55:06;;;;;;;15.30;8.27;;;;;;;;;;5020972;28;20046;-64
2022/04/30 09:57:32;;;;;;;11.93;7.78;;;;;;;;;;5007980;28;20061;-64
2022/04/30 10:00:00;;;;;;;11.07;8.82;;;;;;;;;;5018335;28;20179;-64
2022/04/30 10:02:28;;;;;;;17.42;8.65;;;;;;;;;;5021120;28;20042;-64
2022/04/30 10:04:55;;;;;;;15.52;8.07;;;;;;;;;;5019396;28;20091;-64
2022/04/30 10:07:24;;;;;;;10.73;6.53;;;;;;;;;;5018095;28;20193;-64
2022/04/30 10:09:56;;;;;;;11.27;6.78;;;;;;;;;;4985537;28;20044;-65
2022/04/30 10:12:31;;;;;;;14.05;6.53;;;;;;;;;;5016622;28;20088;-66
2022/04/30 10:15:18;;;;;;;18.08;7.80;;;;;;;;;;5022605;28;20445;-68
2022/04/30 10:17:47;;;;;;;13.52;7.57;;;;;;;;;;5004330;28;20056;-65
2022/04/30 10:20:18;;;;;;;9.30;6.72;;;;;;;;;;5008429;28;20038;-65
2022/04/30 10:22:49;;;;;;;13.27;6.03;;;;;;;;;;5020595;28;20041;-65
2022/04/30 10:25:15;;;;;;;9.82;6.05;;;;;;;;;;5021066;28;20517;-65
2022/04/30 10:27:43;;;;;;;12.60;6.22;;;;;;;;;;5004111;28;20505;-65
2022/04/30 10:30:17;;;;;;;14.13;6.68;;;;;;;;;;5022072;28;20047;-65
2022/04/30 10:32:44;;;;;;;9.32;6.43;;;;;;;;;;5002522;28;20136;-64
2022/04/30 10:35:10;;;;;;;10.40;6.63;;;;;;;;;;5024529;28;20378;-65
2022/04/30 10:37:37;;;;;;;10.57;6.63;;;;;;;;;;5023116;28;20056;-65
2022/04/30 10:40:05;;;;;;;10.30;6.20;;;;;;;;;;5005349;28;20397;-65
2022/04/30 10:42:32;;;;;;;10.75;5.93;;;;;;;;;;5018124;28;20577;-65
2022/04/30 10:44:59;;;;;;;12.50;6.20;;;;;;;;;;4999755;28;20045;-65
2022/04/30 10:47:25;;;;;;;12.52;7.10;;;;;;;;;;5019167;28;20116;-65
2022/04/30 10:49:52;;;;;;;11.82;6.85;;;;;;;;;;5006659;28;20050;-65
2022/04/30 10:52:21;;;;;;;9.40;4.60;;;;;;;;;;5022730;28;20512;-65
2022/04/30 10:54:49;;;;;;;8.50;4.65;;;;;;;;;;4999791;28;20057;-65
2022/04/30 10:57:15;;;;;;;13.48;5.28;;;;;;;;;;5000163;28;20068;-65
2022/04/30 10:59:41;;;;;;;13.13;5.75;;;;;;;;;;5020423;28;20132;-65
2022/04/30 11:02:11;;;;;;;9.07;5.53;;;;;;;;;;5022407;28;20045;-66
2022/04/30 11:04:38;;;;;;;12.48;5.93;;;;;;;;;;5004921;28;20474;-65
2022/04/30 11:07:04;;;;;;;8.02;4.85;;;;;;;;;;5006031;28;20155;-66
2022/04/30 11:09:30;;;;;;;7.93;5.43;;;;;;;;;;5004351;28;20136;-66
2022/04/30 11:11:57;;;;;;;12.20;4.82;;;;;;;;;;5000024;28;20092;-66
2022/04/30 11:14:24;;;;;;;10.52;5.40;;;;;;;;;;5000676;28;20148;-66
2022/04/30 11:16:50;;;;;;;10.02;5.63;;;;;;;;;;5010710;28;20049;-65
2022/04/30 11:19:18;;;;;;;10.80;6.18;;;;;;;;;;4997984;28;20056;-66
2022/04/30 11:21:48;;;;;;;16.30;8.95;;;;;;;;;;5013667;28;20481;-66
2022/04/30 11:24:22;;;;;;;14.32;10.18;;;;;;;;;;5016539;28;20087;-67
2022/04/30 11:26:48;;;;;;;13.60;9.63;;;;;;;;;;5015085;28;20042;-66
2022/04/30 11:29:14;;;;;;;15.02;10.05;;;;;;;;;;5018761;28;20046;-65
2022/04/30 11:31:43;;;;;;;14.75;9.70;;;;;;;;;;5024924;28;20046;-66
2022/04/30 11:34:13;;;;;;;18.13;10.05;;;;;;;;;;5002157;28;20049;-65
2022/04/30 11:36:41;;;;;;;17.30;10.13;;;;;;;;;;5024991;28;20038;-66
2022/04/30 11:39:09;;;;;;;13.98;9.20;;;;;;;;;;5022432;28;20398;-66
2022/04/30 11:41:39;;;;;;;14.68;8.65;;;;;;;;;;5021226;28;21682;-66
2022/04/30 11:44:05;;;;;;;14.48;8.93;;;;;;;;;;5019792;28;20091;-66
2022/04/30 11:46:32;;;;;;;14.85;9.30;;;;;;;;;;5020388;28;20474;-65
2022/04/30 11:48:58;;;;;;;16.52;8.10;;;;;;;;;;5003018;28;20381;-65
2022/04/30 11:51:27;;;;;;;13.85;8.23;;;;;;;;;;5001457;28;20045;-65
2022/04/30 11:53:53;;;;;;;12.30;7.63;;;;;;;;;;4996180;28;20064;-66
2022/04/30 11:56:20;;;;;;;13.07;8.05;;;;;;;;;;5000002;28;20493;-66
2022/04/30 11:58:46;;;;;;;13.43;9.07;;;;;;;;;;5006030;28;20070;-65
2022/04/30 12:01:24;;;;;;;13.23;8.25;;;;;;;;;;5019321;28;20080;-66
2022/04/30 12:03:59;;;;;;;12.57;8.00;;;;;;;;;;5003678;28;21128;-66
2022/04/30 12:06:26;;;;;;;15.52;8.23;;;;;;;;;;5019027;28;20092;-65
2022/04/30 12:08:52;;;;;;;10.40;7.70;;;;;;;;;;5005634;28;20115;-66
2022/04/30 12:11:19;;;;;;;10.82;8.07;;;;;;;;;;4998577;28;20056;-65
2022/04/30 12:13:55;;;;;;;12.13;7.65;;;;;;;;;;5003977;28;20119;-66
2022/04/30 12:16:22;;;;;;;13.35;8.30;;;;;;;;;;5017770;28;20049;-66
2022/04/30 12:24:43;;;;;;;12.20;7.45;;;;;;;;;;5006212;28;20053;-66
2022/04/30 12:27:10;;;;;;;16.00;7.68;;;;;;;;;;5015835;28;20045;-66
2022/04/30 12:29:37;;;;;;;13.38;7.68;;;;;;;;;;5000621;28;20034;-65
2022/04/30 12:32:04;;;;;;;13.93;7.72;;;;;;;;;;5017414;28;20114;-65
2022/04/30 12:34:37;;;;;;;10.50;6.82;;;;;;;;;;5005169;28;20136;-65
2022/04/30 12:37:03;;;;;;;11.75;7.57;;;;;;;;;;5004511;28;20155;-66
2022/04/30 12:39:29;;;;;;;11.75;8.13;;;;;;;;;;5003172;28;20045;-65
2022/04/30 12:41:57;;;;;;;17.52;8.90;;;;;;;;;;5017699;28;20067;-65
2022/04/30 12:44:24;;;;;;;12.70;8.27;;;;;;;;;;5018539;28;20057;-65
2022/04/30 12:46:50;;;;;;;13.65;8.07;;;;;;;;;;4999744;28;20072;-65
2022/04/30 12:49:17;;;;;;;15.85;8.45;;;;;;;;;;5017575;28;20052;-65
2022/04/30 12:51:45;;;;;;;12.68;8.57;;;;;;;;;;4999578;28;20041;-65
2022/04/30 12:54:12;;;;;;;12.02;8.40;;;;;;;;;;5014826;28;20041;-65
2022/04/30 12:56:40;;;;;;;17.33;8.70;;;;;;;;;;5015378;28;20068;-66
2022/04/30 12:59:06;;;;;;;13.40;8.00;;;;;;;;;;5012967;28;20033;-65
2022/04/30 13:01:34;;;;;;;11.63;7.78;;;;;;;;;;5011489;28;20038;-65
2022/04/30 13:04:01;;;;;;;10.93;7.47;;;;;;;;;;4999621;28;20057;-65
2022/04/30 13:06:27;;;;;;;13.88;8.65;;;;;;;;;;5017200;28;20438;-65
2022/04/30 13:14:23;;;;;;;10.43;7.78;;;;;;;;;;5018619;28;20566;-65
2022/04/30 13:16:50;;;;;;;12.82;8.10;;;;;;;;;;5014762;28;20038;-65
2022/04/30 13:19:16;;;;;;;16.77;7.68;;;;;;;;;;5019523;28;20046;-65
2022/04/30 13:21:46;;;;;;;13.25;7.85;;;;;;;;;;5016847;28;20513;-65
2022/04/30 13:24:13;;;;;;;12.20;7.32;;;;;;;;;;5003031;28;20053;-65
2022/04/30 13:26:40;;;;;;;12.60;7.43;;;;;;;;;;5020896;28;20055;-65
2022/04/30 13:29:07;;;;;;;14.10;6.97;;;;;;;;;;5001989;28;20124;-65
2022/04/30 13:31:33;;;;;;;13.82;8.15;;;;;;;;;;5019400;28;20057;-65
2022/04/30 13:33:59;;;;;;;12.00;7.30;;;;;;;;;;5024972;28;20091;-65
2022/04/30 13:36:25;;;;;;;17.13;7.78;;;;;;;;;;5003322;28;20144;-66
2022/04/30 13:38:51;;;;;;;12.15;7.13;;;;;;;;;;5020769;28;20046;-66
2022/04/30 13:41:18;;;;;;;13.48;6.97;;;;;;;;;;5007651;28;20179;-65
2022/04/30 13:43:44;;;;;;;14.50;6.95;;;;;;;;;;5003849;28;20505;-66
2022/04/30 13:46:10;;;;;;;14.32;7.45;;;;;;;;;;5022742;28;20128;-69
2022/04/30 13:48:37;;;;;;;11.75;6.97;;;;;;;;;;5007606;28;20038;-66
2022/04/30 13:51:04;;;;;;;11.55;7.47;;;;;;;;;;5018819;28;20489;-65
2022/04/30 13:53:30;;;;;;;12.57;6.75;;;;;;;;;;5028080;28;20064;-65
2022/04/30 13:55:58;;;;;;;11.25;7.65;;;;;;;;;;4989084;28;20049;-64
2022/04/30 13:58:24;;;;;;;11.95;7.95;;;;;;;;;;5022900;28;20208;-65
2022/04/30 14:00:50;;;;;;;10.15;6.40;;;;;;;;;;4990626;28;20224;-66
2022/04/30 14:03:17;;;;;;;12.65;6.50;;;;;;;;;;5008994;28;20358;-66
2022/04/30 14:05:44;;;;;;;12.98;7.85;;;;;;;;;;5026454;28;20452;-66
2022/04/30 14:08:12;;;;;;;15.95;7.85;;;;;;;;;;5011188;28;20041;-66
2022/04/30 14:10:38;;;;;;;11.90;6.35;;;;;;;;;;5007282;28;20049;-66
2022/04/30 14:15:50;;;;;;;12.40;6.60;;;;;;;;;;5007913;28;20057;-66
2022/04/30 14:18:16;;;;;;;9.82;6.13;;;;;;;;;;5000899;28;20045;-66
2022/04/30 14:20:43;;;;;;;11.93;5.78;;;;;;;;;;5003920;28;20151;-66
2022/04/30 14:23:11;;;;;;;9.52;5.30;;;;;;;;;;5015299;28;20034;-66
2022/04/30 14:25:38;;;;;;;12.57;4.95;;;;;;;;;;5026562;28;20101;-65
2022/04/30 14:28:06;;;;;;;7.63;4.53;;;;;;;;;;5008029;28;20164;-65
2022/04/30 14:30:34;;;;;;;11.95;5.13;;;;;;;;;;5017562;28;20054;-66
2022/04/30 14:33:02;;;;;;;8.85;4.20;;;;;;;;;;5019545;28;20053;-65
2022/04/30 14:35:28;;;;;;;7.25;4.60;;;;;;;;;;5003597;28;20045;-65
2022/04/30 14:37:54;;;;;;;9.48;4.68;;;;;;;;;;5020553;28;20038;-66
2022/04/30 14:40:21;;;;;;;10.13;5.38;;;;;;;;;;5024933;28;20049;-65
2022/04/30 14:42:48;;;;;;;8.88;5.03;;;;;;;;;;5011179;28;20113;-66
2022/04/30 14:45:17;;;;;;;11.27;4.40;;;;;;;;;;5019930;28;20499;-65
2022/04/30 14:47:43;;;;;;;12.00;5.28;;;;;;;;;;5004152;28;20053;-65
2022/04/30 14:50:10;;;;;;;12.50;7.57;;;;;;;;;;4996852;28;20042;-65
2022/04/30 14:52:37;;;;;;;14.05;8.00;;;;;;;;;;5018786;28;20038;-65
2022/04/30 14:55:04;;;;;;;12.30;8.07;;;;;;;;;;5027613;28;20056;-65
2022/04/30 14:57:30;;;;;;;18.77;8.80;;;;;;;;;;5020510;28;20053;-65
2022/04/30 14:59:57;;;;;;;11.63;7.63;;;;;;;;;;5002409;28;20103;-66
2022/04/30 15:02:24;;;;;;;14.98;7.30;;;;;;;;;;5019910;28;20490;-66
2022/04/30 15:04:50;;;;;;;13.05;7.30;;;;;;;;;;5002325;28;20511;-66
2022/04/30 15:07:16;;;;;;;14.32;6.68;;;;;;;;;;5019702;28;20387;-65
2022/04/30 15:09:43;;;;;;;10.60;6.55;;;;;;;;;;5003367;28;20053;-66
2022/04/30 15:12:09;;;;;;;13.32;7.32;;;;;;;;;;5000653;28;20037;-66
2022/04/30 15:14:36;;;;;;;13.55;8.20;;;;;;;;;;5018770;28;20131;-66
2022/04/30 15:17:02;;;;;;;11.02;7.53;;;;;;;;;;5021272;28;20085;-65